Taizz, Yemen
Current Conditions -  °F | °C
As of 12:00 AM on Thursday 27 Nov 2014 (Local Time) from OYTZ Reporting Station
Scattered Clouds Scattered Clouds  
Wind Chill: 64°   Ceiling: Unl
Heat Index: 64°   Visibility: 6mi
Dew Point: 63°   Wind: 3mph
Humidity: 94%   Direction: 10°N
Pressure: 30.09"   Gusts: NA
Location:  13.6°N, 44.04°E
Report Text: OYTZ 262100Z 01003KT 9999 FEW030 SCT060 18/17 Q1019
Loading
Personal Weather Stations






























Interactive Weather Map New forecast layout! Learn more

10-Day Weather Forecast

Advertisements
Track Severe Weather on mobile